sensor_id;sensor_type;location;lat;lon;timestamp;pressure;altitude;pressure_sealevel;temperature;humidity
64521;BME280;50896;46.714;17.322;2023-02-14T00:00:55;102479.84;;;0.51;100.00
64521;BME280;50896;46.714;17.322;2023-02-14T00:03:22;102480.28;;;0.66;100.00
64521;BME280;50896;46.714;17.322;2023-02-14T00:05:49;102469.94;;;0.61;100.00
64521;BME280;50896;46.714;17.322;2023-02-14T00:08:16;102469.94;;;0.61;100.00
64521;BME280;50896;46.714;17.322;2023-02-14T00:10:43;102458.56;;;0.62;100.00
64521;BME280;50896;46.714;17.322;2023-02-14T00:13:09;102466.19;;;0.70;100.00
64521;BME280;50896;46.714;17.322;2023-02-14T00:15:36;102481.97;;;0.68;100.00
64521;BME280;50896;46.714;17.322;2023-02-14T00:18:03;102469.91;;;0.63;100.00
64521;BME280;50896;46.714;17.322;2023-02-14T00:20:31;102464.09;;;0.81;100.00
64521;BME280;50896;46.714;17.322;2023-02-14T00:22:58;102465.94;;;0.78;100.00
64521;BME280;50896;46.714;17.322;2023-02-14T00:25:26;102464.47;;;0.69;100.00
64521;BME280;50896;46.714;17.322;2023-02-14T00:27:53;102461.53;;;0.80;100.00
64521;BME280;50896;46.714;17.322;2023-02-14T00:30:21;102462.53;;;0.76;100.00
64521;BME280;50896;46.714;17.322;2023-02-14T00:32:48;102461.81;;;0.71;100.00
64521;BME280;50896;46.714;17.322;2023-02-14T00:35:15;102463.41;;;0.75;100.00
64521;BME280;50896;46.714;17.322;2023-02-14T00:37:44;102456.72;;;0.66;100.00
64521;BME280;50896;46.714;17.322;2023-02-14T00:40:12;102455.78;;;0.68;100.00
64521;BME280;50896;46.714;17.322;2023-02-14T00:42:39;102454.84;;;0.70;100.00
64521;BME280;50896;46.714;17.322;2023-02-14T00:45:06;102467.25;;;0.64;100.00
64521;BME280;50896;46.714;17.322;2023-02-14T00:47:34;102470.88;;;0.60;100.00
64521;BME280;50896;46.714;17.322;2023-02-14T00:50:01;102486.78;;;0.53;100.00
64521;BME280;50896;46.714;17.322;2023-02-14T00:52:29;102473.47;;;0.60;100.00
64521;BME280;50896;46.714;17.322;2023-02-14T00:54:57;102477.09;;;0.56;100.00
64521;BME280;50896;46.714;17.322;2023-02-14T00:57:24;102459.13;;;0.44;100.00
64521;BME280;50896;46.714;17.322;2023-02-14T00:59:51;102447.78;;;0.45;100.00
64521;BME280;50896;46.714;17.322;2023-02-14T01:02:19;102465.78;;;0.54;100.00
64521;BME280;50896;46.714;17.322;2023-02-14T01:04:46;102471.84;;;0.56;100.00
64521;BME280;50896;46.714;17.322;2023-02-14T01:07:13;102462.56;;;0.46;100.00
64521;BME280;50896;46.714;17.322;2023-02-14T01:09:40;102470.41;;;0.46;100.00
64521;BME280;50896;46.714;17.322;2023-02-14T01:12:07;102481.66;;;0.49;100.00
64521;BME280;50896;46.714;17.322;2023-02-14T01:14:34;102467.88;;;0.43;100.00
64521;BME280;50896;46.714;17.322;2023-02-14T01:17:01;102463.66;;;0.39;100.00
64521;BME280;50896;46.714;17.322;2023-02-14T01:19:28;102462.81;;;0.38;100.00
64521;BME280;50896;46.714;17.322;2023-02-14T01:21:55;102468.88;;;0.39;100.00
64521;BME280;50896;46.714;17.322;2023-02-14T01:24:21;102448.00;;;0.37;100.00
64521;BME280;50896;46.714;17.322;2023-02-14T01:26:48;102461.44;;;0.55;100.00
64521;BME280;50896;46.714;17.322;2023-02-14T01:29:15;102430.19;;;0.48;100.00
64521;BME280;50896;46.714;17.322;2023-02-14T01:31:42;102449.91;;;0.60;100.00
64521;BME280;50896;46.714;17.322;2023-02-14T01:34:10;102430.50;;;0.39;100.00
64521;BME280;50896;46.714;17.322;2023-02-14T01:36:38;102449.34;;;0.50;100.00
64521;BME280;50896;46.714;17.322;2023-02-14T01:39:07;102433.06;;;0.41;100.00
64521;BME280;50896;46.714;17.322;2023-02-14T01:41:37;102441.72;;;0.43;100.00
64521;BME280;50896;46.714;17.322;2023-02-14T01:46:34;102439.94;;;0.45;100.00
64521;BME280;50896;46.714;17.322;2023-02-14T01:49:23;102449.47;;;0.46;100.00
64521;BME280;50896;46.714;17.322;2023-02-14T01:54:25;102454.06;;;0.38;100.00
64521;BME280;50896;46.714;17.322;2023-02-14T01:56:56;102441.03;;;0.36;100.00
64521;BME280;50896;46.714;17.322;2023-02-14T01:59:27;102430.63;;;0.34;100.00
64521;BME280;50896;46.714;17.322;2023-02-14T02:01:56;102420.16;;;0.34;100.00
64521;BME280;50896;46.714;17.322;2023-02-14T02:04:36;102435.84;;;0.34;100.00
64521;BME280;50896;46.714;17.322;2023-02-14T02:07:08;102439.41;;;0.32;100.00
64521;BME280;50896;46.714;17.322;2023-02-14T02:09:40;102437.72;;;0.31;100.00
64521;BME280;50896;46.714;17.322;2023-02-14T02:12:09;102443.75;;;0.33;100.00
64521;BME280;50896;46.714;17.322;2023-02-14T02:14:36;102436.84;;;0.30;100.00
64521;BME280;50896;46.714;17.322;2023-02-14T02:35:19;102437.09;;;0.23;100.00
64521;BME280;50896;46.714;17.322;2023-02-14T02:40:40;102426.72;;;0.20;100.00
64521;BME280;50896;46.714;17.322;2023-02-14T02:46:11;102401.13;;;-0.01;100.00
64521;BME280;50896;46.714;17.322;2023-02-14T02:49:11;102416.28;;;0.18;100.00
64521;BME280;50896;46.714;17.322;2023-02-14T02:51:53;102421.50;;;0.20;100.00
64521;BME280;50896;46.714;17.322;2023-02-14T02:54:49;102411.25;;;0.12;100.00
64521;BME280;50896;46.714;17.322;2023-02-14T02:57:27;102406.13;;;0.09;100.00
64521;BME280;50896;46.714;17.322;2023-02-14T02:59:56;102423.34;;;0.16;100.00
64521;BME280;50896;46.714;17.322;2023-02-14T03:02:30;102419.09;;;0.12;100.00
64521;BME280;50896;46.714;17.322;2023-02-14T03:05:02;102412.09;;;0.12;100.00
64521;BME280;50896;46.714;17.322;2023-02-14T03:07:36;102405.16;;;0.11;100.00
64521;BME280;50896;46.714;17.322;2023-02-14T03:10:19;102398.31;;;0.07;100.00
64521;BME280;50896;46.714;17.322;2023-02-14T03:13:00;102399.84;;;0.14;100.00
64521;BME280;50896;46.714;17.322;2023-02-14T03:30:07;102380.28;;;0.26;100.00
64521;BME280;50896;46.714;17.322;2023-02-14T03:32:54;102387.91;;;0.34;100.00
64521;BME280;50896;46.714;17.322;2023-02-14T03:35:53;102384.41;;;0.62;100.00
64521;BME280;50896;46.714;17.322;2023-02-14T03:38:37;102383.22;;;0.72;100.00
64521;BME280;50896;46.714;17.322;2023-02-14T03:41:11;102387.66;;;0.70;100.00
64521;BME280;50896;46.714;17.322;2023-02-14T03:43:44;102365.50;;;0.54;100.00
64521;BME280;50896;46.714;17.322;2023-02-14T03:46:17;102389.59;;;0.63;100.00
64521;BME280;50896;46.714;17.322;2023-02-14T03:48:47;102387.16;;;0.57;100.00
64521;BME280;50896;46.714;17.322;2023-02-14T03:51:18;102383.69;;;0.57;100.00
64521;BME280;50896;46.714;17.322;2023-02-14T03:53:49;102384.75;;;0.51;100.00
64521;BME280;50896;46.714;17.322;2023-02-14T03:56:33;102363.03;;;0.47;100.00
64521;BME280;50896;46.714;17.322;2023-02-14T03:59:13;102368.66;;;0.63;100.00
64521;BME280;50896;46.714;17.322;2023-02-14T04:04:31;102365.53;;;0.79;100.00
64521;BME280;50896;46.714;17.322;2023-02-14T04:07:18;102361.69;;;0.89;100.00
64521;BME280;50896;46.714;17.322;2023-02-14T04:09:46;102374.00;;;1.12;100.00
64521;BME280;50896;46.714;17.322;2023-02-14T04:12:14;102370.09;;;0.99;100.00
64521;BME280;50896;46.714;17.322;2023-02-14T04:14:43;102358.28;;;0.87;100.00
64521;BME280;50896;46.714;17.322;2023-02-14T04:17:10;102374.00;;;0.87;100.00
64521;BME280;50896;46.714;17.322;2023-02-14T04:19:56;102364.25;;;0.91;100.00
64521;BME280;50896;46.714;17.322;2023-02-14T04:22:22;102368.81;;;0.85;100.00
64521;BME280;50896;46.714;17.322;2023-02-14T04:24:49;102354.56;;;0.67;100.00
64521;BME280;50896;46.714;17.322;2023-02-14T04:27:16;102366.03;;;0.63;100.00
64521;BME280;50896;46.714;17.322;2023-02-14T04:29:48;102350.84;;;0.48;100.00
64521;BME280;50896;46.714;17.322;2023-02-14T04:32:18;102377.81;;;0.50;100.00
64521;BME280;50896;46.714;17.322;2023-02-14T04:34:46;102374.63;;;0.40;100.00
64521;BME280;50896;46.714;17.322;2023-02-14T04:37:15;102367.19;;;0.26;100.00
64521;BME280;50896;46.714;17.322;2023-02-14T04:39:42;102373.47;;;0.21;100.00
64521;BME280;50896;46.714;17.322;2023-02-14T04:42:09;102372.78;;;0.15;100.00
64521;BME280;50896;46.714;17.322;2023-02-14T04:44:36;102348.69;;;0.04;100.00
64521;BME280;50896;46.714;17.322;2023-02-14T04:47:04;102368.34;;;0.17;100.00
64521;BME280;50896;46.714;17.322;2023-02-14T04:49:31;102369.91;;;0.23;100.00
64521;BME280;50896;46.714;17.322;2023-02-14T04:51:59;102368.81;;;0.30;100.00
64521;BME280;50896;46.714;17.322;2023-02-14T04:54:26;102368.03;;;0.28;100.00
64521;BME280;50896;46.714;17.322;2023-02-14T04:56:53;102362.47;;;0.38;100.00
64521;BME280;50896;46.714;17.322;2023-02-14T04:59:19;102368.59;;;0.38;100.00
64521;BME280;50896;46.714;17.322;2023-02-14T05:01:51;102364.25;;;0.37;100.00
64521;BME280;50896;46.714;17.322;2023-02-14T05:04:18;102348.00;;;0.27;100.00
64521;BME280;50896;46.714;17.322;2023-02-14T05:06:45;102342.84;;;0.24;100.00
64521;BME280;50896;46.714;17.322;2023-02-14T05:09:12;102347.28;;;0.22;100.00
64521;BME280;50896;46.714;17.322;2023-02-14T05:11:39;102331.94;;;0.11;100.00
64521;BME280;50896;46.714;17.322;2023-02-14T05:14:06;102352.75;;;0.14;100.00
64521;BME280;50896;46.714;17.322;2023-02-14T05:16:33;102355.53;;;0.10;100.00
64521;BME280;50896;46.714;17.322;2023-02-14T05:18:59;102339.41;;;-0.06;100.00
64521;BME280;50896;46.714;17.322;2023-02-14T05:21:26;102360.25;;;-0.03;100.00
64521;BME280;50896;46.714;17.322;2023-02-14T05:23:54;102357.69;;;-0.05;100.00
64521;BME280;50896;46.714;17.322;2023-02-14T05:26:21;102343.28;;;-0.18;100.00
64521;BME280;50896;46.714;17.322;2023-02-14T05:28:48;102337.22;;;-0.20;100.00
64521;BME280;50896;46.714;17.322;2023-02-14T05:31:14;102358.88;;;-0.15;100.00
64521;BME280;50896;46.714;17.322;2023-02-14T05:33:41;102370.13;;;-0.13;100.00
64521;BME280;50896;46.714;17.322;2023-02-14T05:36:09;102364.94;;;-0.14;100.00
64521;BME280;50896;46.714;17.322;2023-02-14T05:38:36;102373.66;;;-0.14;100.00
64521;BME280;50896;46.714;17.322;2023-02-14T05:41:02;102375.13;;;-0.05;100.00
64521;BME280;50896;46.714;17.322;2023-02-14T05:43:29;102369.84;;;-0.04;100.00
64521;BME280;50896;46.714;17.322;2023-02-14T05:45:56;102377.59;;;-0.01;100.00
64521;BME280;50896;46.714;17.322;2023-02-14T05:48:23;102377.66;;;-0.02;100.00
64521;BME280;50896;46.714;17.322;2023-02-14T05:50:51;102367.16;;;-0.01;100.00
64521;BME280;50896;46.714;17.322;2023-02-14T05:53:17;102369.00;;;-0.04;100.00
64521;BME280;50896;46.714;17.322;2023-02-14T05:55:44;102366.28;;;-0.01;100.00
64521;BME280;50896;46.714;17.322;2023-02-14T05:58:11;102379.75;;;0.15;100.00
64521;BME280;50896;46.714;17.322;2023-02-14T06:00:38;102356.16;;;0.16;100.00
64521;BME280;50896;46.714;17.322;2023-02-14T06:03:07;102374.06;;;0.30;100.00
64521;BME280;50896;46.714;17.322;2023-02-14T06:05:34;102354.28;;;0.22;100.00
64521;BME280;50896;46.714;17.322;2023-02-14T06:08:01;102374.66;;;0.39;100.00
64521;BME280;50896;46.714;17.322;2023-02-14T06:10:28;102379.00;;;0.40;100.00
64521;BME280;50896;46.714;17.322;2023-02-14T06:12:55;102379.97;;;0.37;100.00
64521;BME280;50896;46.714;17.322;2023-02-14T06:15:22;102384.28;;;0.38;100.00
64521;BME280;50896;46.714;17.322;2023-02-14T06:17:56;102389.38;;;0.43;100.00
64521;BME280;50896;46.714;17.322;2023-02-14T06:20:23;102386.81;;;0.41;100.00
64521;BME280;50896;46.714;17.322;2023-02-14T06:22:50;102379.19;;;0.33;100.00
64521;BME280;50896;46.714;17.322;2023-02-14T06:25:18;102367.97;;;0.30;100.00
64521;BME280;50896;46.714;17.322;2023-02-14T06:27:46;102392.03;;;0.41;100.00
64521;BME280;50896;46.714;17.322;2023-02-14T06:30:16;102389.44;;;0.41;100.00
64521;BME280;50896;46.714;17.322;2023-02-14T06:32:43;102383.41;;;0.38;100.00
64521;BME280;50896;46.714;17.322;2023-02-14T06:35:11;102383.41;;;0.39;100.00
64521;BME280;50896;46.714;17.322;2023-02-14T06:37:39;102400.50;;;0.49;100.00
64521;BME280;50896;46.714;17.322;2023-02-14T06:40:08;102391.66;;;0.54;100.00
64521;BME280;50896;46.714;17.322;2023-02-14T06:42:36;102396.78;;;0.57;100.00
64521;BME280;50896;46.714;17.322;2023-02-14T06:45:04;102395.94;;;0.56;100.00
64521;BME280;50896;46.714;17.322;2023-02-14T06:47:31;102388.78;;;0.61;100.00
64521;BME280;50896;46.714;17.322;2023-02-14T06:50:00;102389.34;;;0.71;100.00
64521;BME280;50896;46.714;17.322;2023-02-14T06:52:31;102388.25;;;0.78;100.00
64521;BME280;50896;46.714;17.322;2023-02-14T06:54:57;102395.00;;;0.85;100.00
64521;BME280;50896;46.714;17.322;2023-02-14T06:57:24;102399.22;;;0.90;100.00
64521;BME280;50896;46.714;17.322;2023-02-14T06:59:51;102397.28;;;0.96;100.00
64521;BME280;50896;46.714;17.322;2023-02-14T07:02:18;102399.56;;;1.06;100.00
64521;BME280;50896;46.714;17.322;2023-02-14T07:04:45;102406.34;;;1.11;100.00
64521;BME280;50896;46.714;17.322;2023-02-14T07:07:11;102396.34;;;1.23;100.00
64521;BME280;50896;46.714;17.322;2023-02-14T07:09:38;102393.59;;;1.27;100.00
64521;BME280;50896;46.714;17.322;2023-02-14T07:12:05;102378.94;;;1.22;100.00
64521;BME280;50896;46.714;17.322;2023-02-14T07:14:32;102393.25;;;1.36;100.00
64521;BME280;50896;46.714;17.322;2023-02-14T07:16:59;102370.09;;;1.24;100.00
64521;BME280;50896;46.714;17.322;2023-02-14T07:19:25;102383.00;;;1.30;100.00
64521;BME280;50896;46.714;17.322;2023-02-14T07:21:52;102394.75;;;1.44;100.00
64521;BME280;50896;46.714;17.322;2023-02-14T07:24:19;102388.78;;;1.40;100.00
64521;BME280;50896;46.714;17.322;2023-02-14T07:26:46;102397.44;;;1.42;100.00
64521;BME280;50896;46.714;17.322;2023-02-14T07:29:12;102393.72;;;1.48;100.00
64521;BME280;50896;46.714;17.322;2023-02-14T07:31:39;102396.31;;;1.49;100.00
64521;BME280;50896;46.714;17.322;2023-02-14T07:34:06;102395.13;;;1.58;100.00
64521;BME280;50896;46.714;17.322;2023-02-14T07:36:36;102388.09;;;1.59;100.00
64521;BME280;50896;46.714;17.322;2023-02-14T07:39:03;102379.28;;;1.61;100.00
64521;BME280;50896;46.714;17.322;2023-02-14T07:41:30;102369.59;;;1.63;100.00
64521;BME280;50896;46.714;17.322;2023-02-14T07:43:57;102381.47;;;1.74;100.00
64521;BME280;50896;46.714;17.322;2023-02-14T07:46:24;102380.63;;;1.73;100.00
64521;BME280;50896;46.714;17.322;2023-02-14T07:48:51;102380.63;;;1.73;100.00
64521;BME280;50896;46.714;17.322;2023-02-14T07:51:18;102360.81;;;1.64;100.00
64521;BME280;50896;46.714;17.322;2023-02-14T07:53:44;102381.13;;;1.83;100.00
64521;BME280;50896;46.714;17.322;2023-02-14T07:56:11;102382.09;;;1.80;100.00
64521;BME280;50896;46.714;17.322;2023-02-14T07:58:38;102381.78;;;1.88;100.00
64521;BME280;50896;46.714;17.322;2023-02-14T08:01:05;102383.50;;;1.89;100.00
64521;BME280;50896;46.714;17.322;2023-02-14T08:03:32;102388.63;;;1.92;100.00
64521;BME280;50896;46.714;17.322;2023-02-14T08:05:58;102386.75;;;1.96;100.00
64521;BME280;50896;46.714;17.322;2023-02-14T08:08:27;102389.19;;;2.00;100.00
64521;BME280;50896;46.714;17.322;2023-02-14T08:10:54;102393.28;;;2.08;100.00
64521;BME280;50896;46.714;17.322;2023-02-14T08:13:21;102362.28;;;1.95;100.00
64521;BME280;50896;46.714;17.322;2023-02-14T08:15:48;102374.09;;;2.07;100.00
64521;BME280;50896;46.714;17.322;2023-02-14T08:18:34;102386.66;;;2.21;100.00
64521;BME280;50896;46.714;17.322;2023-02-14T08:21:01;102346.25;;;2.03;100.00
64521;BME280;50896;46.714;17.322;2023-02-14T08:23:28;102395.53;;;2.41;100.00
64521;BME280;50896;46.714;17.322;2023-02-14T08:25:55;102394.50;;;2.45;100.00
64521;BME280;50896;46.714;17.322;2023-02-14T08:28:23;102391.25;;;2.60;100.00
64521;BME280;50896;46.714;17.322;2023-02-14T08:30:50;102397.19;;;2.65;100.00
64521;BME280;50896;46.714;17.322;2023-02-14T08:33:18;102398.50;;;2.76;100.00
64521;BME280;50896;46.714;17.322;2023-02-14T08:35:45;102403.84;;;2.74;100.00
64521;BME280;50896;46.714;17.322;2023-02-14T08:38:12;102398.69;;;2.93;100.00
64521;BME280;50896;46.714;17.322;2023-02-14T08:40:39;102400.38;;;2.94;100.00
64521;BME280;50896;46.714;17.322;2023-02-14T08:43:06;102390.19;;;2.86;100.00
64521;BME280;50896;46.714;17.322;2023-02-14T08:45:33;102405.50;;;2.97;100.00
64521;BME280;50896;46.714;17.322;2023-02-14T08:48:07;102389.25;;;2.87;100.00
64521;BME280;50896;46.714;17.322;2023-02-14T08:50:35;102407.94;;;3.02;100.00
64521;BME280;50896;46.714;17.322;2023-02-14T08:53:07;102410.13;;;3.13;100.00
64521;BME280;50896;46.714;17.322;2023-02-14T08:55:34;102415.44;;;3.11;100.00
64521;BME280;50896;46.714;17.322;2023-02-14T08:58:02;102401.72;;;3.04;100.00
64521;BME280;50896;46.714;17.322;2023-02-14T09:00:30;102414.06;;;3.23;100.00
64521;BME280;50896;46.714;17.322;2023-02-14T09:02:57;102411.09;;;3.31;100.00
64521;BME280;50896;46.714;17.322;2023-02-14T09:05:25;102406.84;;;3.28;100.00
64521;BME280;50896;46.714;17.322;2023-02-14T09:07:52;102399.81;;;3.29;100.00
64521;BME280;50896;46.714;17.322;2023-02-14T09:10:22;102409.88;;;3.39;100.00
64521;BME280;50896;46.714;17.322;2023-02-14T09:12:49;102410.91;;;3.35;100.00
64521;BME280;50896;46.714;17.322;2023-02-14T09:15:16;102405.78;;;3.32;100.00
64521;BME280;50896;46.714;17.322;2023-02-14T09:17:43;102397.19;;;3.29;100.00
64521;BME280;50896;46.714;17.322;2023-02-14T09:20:11;102414.97;;;3.42;100.00
64521;BME280;50896;46.714;17.322;2023-02-14T09:22:38;102415.91;;;3.41;100.00
64521;BME280;50896;46.714;17.322;2023-02-14T09:25:05;102411.16;;;3.50;100.00
64521;BME280;50896;46.714;17.322;2023-02-14T09:27:32;102414.84;;;3.46;100.00
64521;BME280;50896;46.714;17.322;2023-02-14T09:29:59;102403.72;;;3.39;100.00
64521;BME280;50896;46.714;17.322;2023-02-14T09:32:26;102419.19;;;3.47;100.00
64521;BME280;50896;46.714;17.322;2023-02-14T09:34:54;102395.00;;;3.38;100.00
64521;BME280;50896;46.714;17.322;2023-02-14T09:37:21;102416.22;;;3.54;100.00
64521;BME280;50896;46.714;17.322;2023-02-14T09:40:07;102415.88;;;3.62;100.00
64521;BME280;50896;46.714;17.322;2023-02-14T09:42:58;102418.72;;;3.57;100.00
64521;BME280;50896;46.714;17.322;2023-02-14T09:45:29;102413.78;;;3.70;100.00
64521;BME280;50896;46.714;17.322;2023-02-14T09:48:02;102403.78;;;3.58;100.00
64521;BME280;50896;46.714;17.322;2023-02-14T09:50:50;102411.13;;;3.70;100.00
64521;BME280;50896;46.714;17.322;2023-02-14T09:53:26;102393.41;;;3.74;100.00
64521;BME280;50896;46.714;17.322;2023-02-14T09:56:04;102409.28;;;3.72;100.00
64521;BME280;50896;46.714;17.322;2023-02-14T10:01:17;102409.03;;;3.79;100.00
64521;BME280;50896;46.714;17.322;2023-02-14T10:03:58;102395.50;;;3.86;100.00
64521;BME280;50896;46.714;17.322;2023-02-14T10:06:47;102398.13;;;3.86;100.00
64521;BME280;50896;46.714;17.322;2023-02-14T10:12:22;102400.25;;;3.78;100.00
64521;BME280;50896;46.714;17.322;2023-02-14T10:14:51;102393.75;;;3.87;100.00
64521;BME280;50896;46.714;17.322;2023-02-14T10:20:19;102398.56;;;3.96;100.00
64521;BME280;50896;46.714;17.322;2023-02-14T10:25:48;102393.72;;;4.06;100.00
64521;BME280;50896;46.714;17.322;2023-02-14T10:28:24;102371.31;;;3.97;100.00
64521;BME280;50896;46.714;17.322;2023-02-14T10:33:50;102373.38;;;3.90;100.00
64521;BME280;50896;46.714;17.322;2023-02-14T10:39:07;102366.97;;;3.96;100.00
64521;BME280;50896;46.714;17.322;2023-02-14T10:51:17;102369.13;;;4.07;100.00
64521;BME280;50896;46.714;17.322;2023-02-14T10:53:48;102361.28;;;4.05;100.00
64521;BME280;50896;46.714;17.322;2023-02-14T10:56:21;102353.91;;;3.94;100.00
64521;BME280;50896;46.714;17.322;2023-02-14T10:58:50;102362.28;;;4.03;100.00
64521;BME280;50896;46.714;17.322;2023-02-14T11:01:19;102361.28;;;4.05;100.00
64521;BME280;50896;46.714;17.322;2023-02-14T11:03:55;102338.91;;;3.97;100.00
64521;BME280;50896;46.714;17.322;2023-02-14T11:06:29;102355.03;;;4.08;100.00
64521;BME280;50896;46.714;17.322;2023-02-14T11:08:56;102354.63;;;3.98;100.00
64521;BME280;50896;46.714;17.322;2023-02-14T11:11:30;102337.53;;;3.88;100.00
64521;BME280;50896;46.714;17.322;2023-02-14T11:14:20;102353.69;;;3.99;100.00
64521;BME280;50896;46.714;17.322;2023-02-14T11:16:48;102354.53;;;4.00;100.00
64521;BME280;50896;46.714;17.322;2023-02-14T11:21:47;102325.44;;;4.03;100.00
64521;BME280;50896;46.714;17.322;2023-02-14T11:24:17;102346.16;;;4.10;100.00
64521;BME280;50896;46.714;17.322;2023-02-14T11:26:46;102321.03;;;4.03;100.00
64521;BME280;50896;46.714;17.322;2023-02-14T11:29:16;102316.63;;;4.04;100.00
64521;BME280;50896;46.714;17.322;2023-02-14T11:31:46;102341.50;;;4.16;100.00
64521;BME280;50896;46.714;17.322;2023-02-14T11:34:29;102319.66;;;4.14;100.00
64521;BME280;50896;46.714;17.322;2023-02-14T11:36:56;102326.00;;;4.28;100.00
64521;BME280;50896;46.714;17.322;2023-02-14T11:39:32;102320.84;;;4.25;100.00
64521;BME280;50896;46.714;17.322;2023-02-14T11:42:03;102336.22;;;4.35;100.00
64521;BME280;50896;46.714;17.322;2023-02-14T11:44:33;102338.59;;;4.39;100.00
64521;BME280;50896;46.714;17.322;2023-02-14T11:47:27;102333.38;;;4.57;100.00
64521;BME280;50896;46.714;17.322;2023-02-14T11:50:06;102319.72;;;4.49;100.00
64521;BME280;50896;46.714;17.322;2023-02-14T11:52:48;102341.44;;;4.54;100.00
64521;BME280;50896;46.714;17.322;2023-02-14T11:55:30;102340.13;;;4.62;100.00
64521;BME280;50896;46.714;17.322;2023-02-14T11:58:03;102329.34;;;4.67;100.00
64521;BME280;50896;46.714;17.322;2023-02-14T12:00:31;102339.75;;;4.70;100.00
64521;BME280;50896;46.714;17.322;2023-02-14T12:03:02;102336.16;;;4.71;100.00
64521;BME280;50896;46.714;17.322;2023-02-14T12:05:34;102331.13;;;4.67;100.00
64521;BME280;50896;46.714;17.322;2023-02-14T12:08:04;102324.16;;;4.66;100.00
64521;BME280;50896;46.714;17.322;2023-02-14T12:10:33;102334.78;;;4.64;100.00
64521;BME280;50896;46.714;17.322;2023-02-14T12:15:53;102337.84;;;4.55;100.00
64521;BME280;50896;46.714;17.322;2023-02-14T12:21:07;102322.22;;;4.52;100.00
64521;BME280;50896;46.714;17.322;2023-02-14T12:29:23;102313.81;;;4.43;100.00
64521;BME280;50896;46.714;17.322;2023-02-14T12:31:58;102299.28;;;4.54;100.00
64521;BME280;50896;46.714;17.322;2023-02-14T12:34:26;102327.03;;;4.61;100.00
64521;BME280;50896;46.714;17.322;2023-02-14T12:40:21;102309.13;;;4.50;100.00
64521;BME280;50896;46.714;17.322;2023-02-14T12:43:02;102309.91;;;4.52;100.00
64521;BME280;50896;46.714;17.322;2023-02-14T12:46:09;102300.22;;;4.53;100.00
64521;BME280;50896;46.714;17.322;2023-02-14T13:03:14;102303.31;;;4.61;100.00
64521;BME280;50896;46.714;17.322;2023-02-14T13:06:06;102296.47;;;4.74;100.00
64521;BME280;50896;46.714;17.322;2023-02-14T13:19:42;102291.59;;;4.84;100.00
64521;BME280;50896;46.714;17.322;2023-02-14T13:22:21;102267.91;;;4.67;100.00
64521;BME280;50896;46.714;17.322;2023-02-14T13:24:50;102281.22;;;4.81;100.00
64521;BME280;50896;46.714;17.322;2023-02-14T13:27:21;102285.63;;;4.81;100.00
64521;BME280;50896;46.714;17.322;2023-02-14T13:29:52;102290.75;;;4.84;100.00
64521;BME280;50896;46.714;17.322;2023-02-14T13:32:21;102286.25;;;4.86;100.00
64521;BME280;50896;46.714;17.322;2023-02-14T13:34:51;102279.59;;;4.78;100.00
64521;BME280;50896;46.714;17.322;2023-02-14T13:37:21;102276.66;;;4.85;100.00
64521;BME280;50896;46.714;17.322;2023-02-14T13:39:53;102281.59;;;4.91;100.00
64521;BME280;50896;46.714;17.322;2023-02-14T13:48:11;102291.44;;;4.87;100.00
64521;BME280;50896;46.714;17.322;2023-02-14T13:50:48;102287.34;;;4.82;100.00
64521;BME280;50896;46.714;17.322;2023-02-14T13:53:40;102276.44;;;4.72;100.00
64521;BME280;50896;46.714;17.322;2023-02-14T14:01:35;102288.28;;;4.81;100.00
64521;BME280;50896;46.714;17.322;2023-02-14T14:17:39;102282.91;;;4.82;100.00
64521;BME280;50896;46.714;17.322;2023-02-14T14:25:32;102274.56;;;4.74;100.00
64521;BME280;50896;46.714;17.322;2023-02-14T14:27:59;102271.53;;;4.82;100.00
64521;BME280;50896;46.714;17.322;2023-02-14T14:30:29;102260.38;;;4.76;100.00
64521;BME280;50896;46.714;17.322;2023-02-14T14:33:31;102269.38;;;4.90;100.00
64521;BME280;50896;46.714;17.322;2023-02-14T14:36:03;102253.25;;;4.61;100.00
64521;BME280;50896;46.714;17.322;2023-02-14T14:38:34;102278.34;;;4.51;100.00
64521;BME280;50896;46.714;17.322;2023-02-14T14:41:11;102268.69;;;4.51;100.00
64521;BME280;50896;46.714;17.322;2023-02-14T14:43:38;102245.97;;;4.31;100.00
64521;BME280;50896;46.714;17.322;2023-02-14T14:46:13;102250.94;;;4.37;100.00
64521;BME280;50896;46.714;17.322;2023-02-14T14:48:44;102255.72;;;4.29;100.00
64521;BME280;50896;46.714;17.322;2023-02-14T14:51:21;102262.66;;;4.13;100.00
64521;BME280;50896;46.714;17.322;2023-02-14T14:53:56;102257.41;;;4.13;100.00
64521;BME280;50896;46.714;17.322;2023-02-14T14:56:26;102244.34;;;3.92;100.00
64521;BME280;50896;46.714;17.322;2023-02-14T14:58:56;102237.53;;;3.88;100.00
64521;BME280;50896;46.714;17.322;2023-02-14T15:01:38;102260.88;;;3.96;100.00
64521;BME280;50896;46.714;17.322;2023-02-14T15:06:50;102261.88;;;3.93;100.00
64521;BME280;50896;46.714;17.322;2023-02-14T15:09:23;102265.56;;;3.89;100.00
64521;BME280;50896;46.714;17.322;2023-02-14T15:11:56;102250.00;;;3.84;100.00
64521;BME280;50896;46.714;17.322;2023-02-14T15:14:45;102253.47;;;3.85;100.00
64521;BME280;50896;46.714;17.322;2023-02-14T15:17:23;102233.16;;;3.69;100.00
64521;BME280;50896;46.714;17.322;2023-02-14T15:20:15;102222.16;;;3.61;100.00
64521;BME280;50896;46.714;17.322;2023-02-14T15:22:46;102234.38;;;3.62;100.00
64521;BME280;50896;46.714;17.322;2023-02-14T15:25:23;102246.25;;;3.71;100.00
64521;BME280;50896;46.714;17.322;2023-02-14T15:27:52;102232.81;;;3.58;100.00